PWSweather.com
Personal Weather Stations
Station Observations
KKYBOWLI8
Plano, Bowling Green, KY 42104

PlanoBowling Green, KY 42104

Lat: 36.8737103, Lon: -86.4190134

Elevation: 616

Station Type: Davis Vantage Pro2

cumulus.redthreadjournal.net

High Low Average
Temperature 43.8°F6.6°C 30.6°F-0.8°C 35.6°F2.0°C
Dew Point 40.0°F4.4°C 30.6°F-0.8°C 34.5°F1.4°C
Winds 8.4 mph 13.5 kmh Calm Calm 5.0 mph S8.0 kmh S
Wind Gusts 16.0 mph25.7 kmh -- 8.0 mph12.9 kmh
Humidity 100% 77% 96%
Pressure 30.21 in1023.0 mb 29.99 in1015.6 mb -
Precipitation 0.06 in1.5 mm - -
Hour Temp Dew Point Humidity Winds Wind Gusts Pressure Precip Precip Rate Daily Precip Total
12:00 AM 33.7°F0.9°C 33.7°F0.9°C 100% 7.0 mph N11.3 kmh N 10.0 mph16.1 kmh 29.98 in1015.2 mb 0.01 in0.3 mm 0.00 in0.0 mm 0.01 in0.3 mm
12:10 AM 33.4°F0.8°C 33.4°F0.8°C 100% 7.0 mph N11.3 kmh N 10.0 mph16.1 kmh 29.97 in1014.9 mb 0.01 in0.3 mm 0.00 in0.0 mm 0.01 in0.3 mm
12:20 AM 33.1°F0.6°C 33.1°F0.6°C 100% 6.4 mph N10.3 kmh N 11.0 mph17.7 kmh 29.98 in1015.2 mb 0.01 in0.3 mm 0.00 in0.0 mm 0.01 in0.3 mm
12:30 AM 33.1°F0.6°C 33.1°F0.6°C 100% 6.8 mph N10.9 kmh N 9.0 mph14.5 kmh 29.98 in1015.2 mb 0.01 in0.3 mm 0.00 in0.0 mm 0.01 in0.3 mm
12:40 AM 33.0°F0.6°C 33.0°F0.6°C 100% 6.0 mph N9.7 kmh N 9.0 mph14.5 kmh 29.98 in1015.2 mb 0.01 in0.3 mm 0.00 in0.0 mm 0.01 in0.3 mm
12:50 AM 33.0°F0.6°C 33.0°F0.6°C 100% 6.2 mph N10.0 kmh N 11.0 mph17.7 kmh 29.98 in1015.2 mb 0.01 in0.3 mm 0.00 in0.0 mm 0.01 in0.3 mm
01:00 AM 33.0°F0.6°C 33.0°F0.6°C 100% 7.0 mph N11.3 kmh N 11.0 mph17.7 kmh 29.99 in1015.6 mb 0.00 in0.0 mm 0.00 in0.0 mm 0.01 in0.3 mm
01:10 AM 33.0°F0.6°C 33.0°F0.6°C 100% 6.1 mph N9.8 kmh N 8.0 mph12.9 kmh 29.99 in1015.6 mb 0.00 in0.0 mm 0.00 in0.0 mm 0.01 in0.3 mm
01:20 AM 33.0°F0.6°C 33.0°F0.6°C 100% 5.9 mph N9.5 kmh N 9.0 mph14.5 kmh 29.99 in1015.6 mb 0.00 in0.0 mm 0.00 in0.0 mm 0.01 in0.3 mm
01:30 AM 33.0°F0.6°C 33.0°F0.6°C 100% 6.0 mph N9.7 kmh N 8.0 mph12.9 kmh 29.99 in1015.6 mb 0.00 in0.0 mm 0.00 in0.0 mm 0.01 in0.3 mm
01:40 AM 33.0°F0.6°C 33.0°F0.6°C 100% 6.0 mph N9.7 kmh N 9.0 mph14.5 kmh 29.99 in1015.6 mb 0.00 in0.0 mm 0.00 in0.0 mm 0.01 in0.3 mm
01:50 AM 32.8°F0.4°C 32.8°F0.4°C 100% 6.0 mph N9.7 kmh N 9.0 mph14.5 kmh 30.00 in1015.9 mb 0.00 in0.0 mm 0.00 in0.0 mm 0.01 in0.3 mm
02:00 AM 32.8°F0.4°C 32.8°F0.4°C 100% 6.1 mph N9.8 kmh N 10.0 mph16.1 kmh 30.00 in1015.9 mb 0.00 in0.0 mm 0.00 in0.0 mm 0.01 in0.3 mm
02:10 AM 32.8°F0.4°C 32.8°F0.4°C 100% 6.1 mph N9.8 kmh N 9.0 mph14.5 kmh 30.00 in1015.9 mb 0.00 in0.0 mm 0.00 in0.0 mm 0.01 in0.3 mm
02:20 AM 32.7°F0.4°C 32.7°F0.4°C 100% 6.0 mph N9.7 kmh N 9.0 mph14.5 kmh 30.00 in1015.9 mb 0.00 in0.0 mm 0.00 in0.0 mm 0.01 in0.3 mm
02:30 AM 32.7°F0.4°C 32.7°F0.4°C 100% 6.0 mph N9.7 kmh N 9.0 mph14.5 kmh 30.00 in1015.9 mb 0.00 in0.0 mm 0.00 in0.0 mm 0.01 in0.3 mm
02:40 AM 32.7°F0.4°C 32.7°F0.4°C 100% 6.0 mph N9.7 kmh N 8.0 mph12.9 kmh 30.01 in1016.3 mb 0.00 in0.0 mm 0.00 in0.0 mm 0.01 in0.3 mm
02:50 AM 32.7°F0.4°C 32.7°F0.4°C 100% 6.0 mph N9.7 kmh N 10.0 mph16.1 kmh 30.01 in1016.3 mb 0.00 in0.0 mm 0.00 in0.0 mm 0.01 in0.3 mm
03:00 AM 32.7°F0.4°C 32.7°F0.4°C 100% 6.0 mph N9.7 kmh N 11.0 mph17.7 kmh 30.01 in1016.3 mb 0.00 in0.0 mm 0.00 in0.0 mm 0.01 in0.3 mm
03:10 AM 32.7°F0.4°C 32.7°F0.4°C 100% 6.0 mph N9.7 kmh N 9.0 mph14.5 kmh 30.00 in1015.9 mb 0.00 in0.0 mm 0.00 in0.0 mm 0.01 in0.3 mm
03:20 AM 32.5°F0.3°C 32.5°F0.3°C 100% 6.0 mph N9.7 kmh N 11.0 mph17.7 kmh 30.01 in1016.3 mb 0.00 in0.0 mm 0.00 in0.0 mm 0.01 in0.3 mm
03:30 AM 32.5°F0.3°C 32.5°F0.3°C 100% 6.0 mph N9.7 kmh N 10.0 mph16.1 kmh 30.01 in1016.3 mb 0.00 in0.0 mm 0.00 in0.0 mm 0.01 in0.3 mm
03:40 AM 32.5°F0.3°C 32.5°F0.3°C 100% 5.4 mph N8.7 kmh N 7.0 mph11.3 kmh 30.01 in1016.3 mb 0.00 in0.0 mm 0.00 in0.0 mm 0.01 in0.3 mm
03:50 AM 32.5°F0.3°C 32.5°F0.3°C 100% 5.0 mph N8.0 kmh N 7.0 mph11.3 kmh 30.01 in1016.3 mb 0.00 in0.0 mm 0.00 in0.0 mm 0.01 in0.3 mm
04:00 AM 32.5°F0.3°C 32.5°F0.3°C 100% 4.3 mph N6.9 kmh N 7.0 mph11.3 kmh 30.01 in1016.3 mb 0.00 in0.0 mm 0.00 in0.0 mm 0.01 in0.3 mm
04:10 AM 32.5°F0.3°C 32.5°F0.3°C 100% 3.0 mph N4.8 kmh N 7.0 mph11.3 kmh 30.01 in1016.3 mb 0.00 in0.0 mm 0.00 in0.0 mm 0.01 in0.3 mm
04:20 AM 32.5°F0.3°C 32.5°F0.3°C 100% 4.2 mph N6.8 kmh N 6.0 mph9.7 kmh 30.02 in1016.6 mb 0.00 in0.0 mm 0.00 in0.0 mm 0.01 in0.3 mm
04:30 AM 32.5°F0.3°C 32.5°F0.3°C 100% 4.3 mph N6.9 kmh N 7.0 mph11.3 kmh 30.02 in1016.6 mb 0.00 in0.0 mm 0.00 in0.0 mm 0.01 in0.3 mm
04:40 AM 32.5°F0.3°C 32.5°F0.3°C 100% 4.4 mph N7.1 kmh N 7.0 mph11.3 kmh 30.02 in1016.6 mb 0.00 in0.0 mm 0.00 in0.0 mm 0.01 in0.3 mm
04:50 AM 32.5°F0.3°C 32.5°F0.3°C 100% 4.8 mph N7.7 kmh N 7.0 mph11.3 kmh 30.03 in1016.9 mb 0.00 in0.0 mm 0.00 in0.0 mm 0.01 in0.3 mm
05:00 AM 32.5°F0.3°C 32.5°F0.3°C 100% 5.0 mph N8.0 kmh N 7.0 mph11.3 kmh 30.03 in1016.9 mb 0.00 in0.0 mm 0.00 in0.0 mm 0.01 in0.3 mm
05:10 AM 32.5°F0.3°C 32.5°F0.3°C 100% 4.0 mph N6.4 kmh N 6.0 mph9.7 kmh 30.03 in1016.9 mb 0.00 in0.0 mm 0.00 in0.0 mm 0.01 in0.3 mm
05:20 AM 32.5°F0.3°C 32.5°F0.3°C 100% 4.0 mph N6.4 kmh N 8.0 mph12.9 kmh 30.04 in1017.3 mb 0.00 in0.0 mm 0.00 in0.0 mm 0.01 in0.3 mm
05:30 AM 32.4°F0.2°C 32.4°F0.2°C 100% 4.0 mph N6.4 kmh N 7.0 mph11.3 kmh 30.04 in1017.3 mb 0.00 in0.0 mm 0.00 in0.0 mm 0.01 in0.3 mm
05:40 AM 32.4°F0.2°C 32.4°F0.2°C 100% 4.9 mph N7.9 kmh N 7.0 mph11.3 kmh 30.05 in1017.6 mb 0.00 in0.0 mm 0.00 in0.0 mm 0.01 in0.3 mm
05:50 AM 32.4°F0.2°C 32.4°F0.2°C 100% 4.2 mph N6.8 kmh N 6.0 mph9.7 kmh 30.05 in1017.6 mb 0.00 in0.0 mm 0.00 in0.0 mm 0.01 in0.3 mm
06:00 AM 32.4°F0.2°C 32.4°F0.2°C 100% 4.3 mph N6.9 kmh N 8.0 mph12.9 kmh 30.05 in1017.6 mb 0.00 in0.0 mm 0.00 in0.0 mm 0.01 in0.3 mm
06:10 AM 32.2°F0.1°C 32.2°F0.1°C 100% 4.6 mph N7.4 kmh N 6.0 mph9.7 kmh 30.05 in1017.6 mb 0.00 in0.0 mm 0.00 in0.0 mm 0.01 in0.3 mm
06:20 AM 32.1°F0.1°C 32.1°F0.1°C 100% 3.9 mph N6.3 kmh N 5.0 mph8.0 kmh 30.06 in1017.9 mb 0.00 in0.0 mm 0.00 in0.0 mm 0.01 in0.3 mm
06:30 AM 32.1°F0.1°C 32.1°F0.1°C 100% 3.7 mph N6.0 kmh N 5.0 mph8.0 kmh 30.06 in1017.9 mb 0.00 in0.0 mm 0.00 in0.0 mm 0.01 in0.3 mm
06:40 AM 31.8°F-0.1°C 31.8°F-0.1°C 100% 3.1 mph N5.0 kmh N 5.0 mph8.0 kmh 30.07 in1018.3 mb 0.00 in0.0 mm 0.00 in0.0 mm 0.01 in0.3 mm
06:50 AM 31.5°F-0.3°C 31.5°F-0.3°C 100% 3.5 mph N5.6 kmh N 5.0 mph8.0 kmh 30.07 in1018.3 mb 0.00 in0.0 mm 0.00 in0.0 mm 0.01 in0.3 mm
07:00 AM 31.3°F-0.4°C 31.3°F-0.4°C 100% 3.2 mph N5.1 kmh N 6.0 mph9.7 kmh 30.07 in1018.3 mb 0.00 in0.0 mm 0.00 in0.0 mm 0.01 in0.3 mm
07:10 AM 31.0°F-0.6°C 31.0°F-0.6°C 100% 3.3 mph N5.3 kmh N 6.0 mph9.7 kmh 30.08 in1018.6 mb 0.00 in0.0 mm 0.00 in0.0 mm 0.01 in0.3 mm
07:20 AM 30.9°F-0.6°C 30.9°F-0.6°C 100% 3.4 mph N5.5 kmh N 6.0 mph9.7 kmh 30.07 in1018.3 mb 0.00 in0.0 mm 0.00 in0.0 mm 0.01 in0.3 mm
07:30 AM 30.7°F-0.7°C 30.7°F-0.7°C 100% 3.9 mph N6.3 kmh N 6.0 mph9.7 kmh 30.08 in1018.6 mb 0.00 in0.0 mm 0.00 in0.0 mm 0.01 in0.3 mm
07:40 AM 30.6°F-0.8°C 30.6°F-0.8°C 100% 4.0 mph N6.4 kmh N 7.0 mph11.3 kmh 30.09 in1019.0 mb 0.00 in0.0 mm 0.00 in0.0 mm 0.01 in0.3 mm
07:50 AM 30.6°F-0.8°C 30.6°F-0.8°C 100% 4.0 mph N6.4 kmh N 6.0 mph9.7 kmh 30.09 in1019.0 mb 0.00 in0.0 mm 0.00 in0.0 mm 0.01 in0.3 mm
08:00 AM 30.9°F-0.6°C 30.9°F-0.6°C 100% 4.7 mph N7.6 kmh N 8.0 mph12.9 kmh 30.09 in1019.0 mb 0.00 in0.0 mm 0.00 in0.0 mm 0.01 in0.3 mm
08:10 AM 31.0°F-0.6°C 31.0°F-0.6°C 100% 4.8 mph N7.7 kmh N 8.0 mph12.9 kmh 30.10 in1019.3 mb 0.00 in0.0 mm 0.00 in0.0 mm 0.01 in0.3 mm
08:20 AM 31.2°F-0.4°C 31.2°F-0.4°C 100% 5.0 mph N8.0 kmh N 7.0 mph11.3 kmh 30.10 in1019.3 mb 0.00 in0.0 mm 0.00 in0.0 mm 0.01 in0.3 mm
08:30 AM 31.6°F-0.2°C 31.6°F-0.2°C 100% 4.4 mph N7.1 kmh N 8.0 mph12.9 kmh 30.10 in1019.3 mb 0.00 in0.0 mm 0.00 in0.0 mm 0.01 in0.3 mm
08:40 AM 31.9°F-0.1°C 31.9°F-0.1°C 100% 4.5 mph N7.2 kmh N 8.0 mph12.9 kmh 30.11 in1019.6 mb 0.00 in0.0 mm 0.00 in0.0 mm 0.01 in0.3 mm
08:50 AM 32.2°F0.1°C 32.2°F0.1°C 100% 4.8 mph N7.7 kmh N 8.0 mph12.9 kmh 30.11 in1019.6 mb 0.00 in0.0 mm 0.00 in0.0 mm 0.01 in0.3 mm
09:00 AM 32.5°F0.3°C 32.5°F0.3°C 100% 4.8 mph N7.7 kmh N 7.0 mph11.3 kmh 30.11 in1019.6 mb 0.01 in0.3 mm 0.01 in0.3 mm 0.01 in0.3 mm
09:10 AM 33.0°F0.6°C 33.0°F0.6°C 100% 4.0 mph N6.4 kmh N 7.0 mph11.3 kmh 30.11 in1019.6 mb 0.01 in0.3 mm 0.00 in0.0 mm 0.01 in0.3 mm
09:20 AM 33.1°F0.6°C 33.1°F0.6°C 100% 4.1 mph N6.6 kmh N 9.0 mph14.5 kmh 30.12 in1020.0 mb 0.02 in0.5 mm 0.06 in1.5 mm 0.02 in0.5 mm
09:30 AM 33.4°F0.8°C 33.4°F0.8°C 100% 5.5 mph N8.9 kmh N 9.0 mph14.5 kmh 30.12 in1020.0 mb 0.03 in0.8 mm 0.06 in1.5 mm 0.03 in0.8 mm
09:40 AM 33.7°F0.9°C 33.7°F0.9°C 100% 5.9 mph N9.5 kmh N 8.0 mph12.9 kmh 30.13 in1020.3 mb 0.03 in0.8 mm 0.00 in0.0 mm 0.03 in0.8 mm
09:50 AM 33.8°F1.0°C 33.8°F1.0°C 100% 5.1 mph N8.2 kmh N 9.0 mph14.5 kmh 30.13 in1020.3 mb 0.04 in1.0 mm 0.06 in1.5 mm 0.04 in1.0 mm
10:00 AM 34.1°F1.2°C 34.1°F1.2°C 100% 5.2 mph N8.4 kmh N 9.0 mph14.5 kmh 30.13 in1020.3 mb 0.04 in1.0 mm 0.00 in0.0 mm 0.05 in1.3 mm
10:10 AM 34.1°F1.2°C 34.1°F1.2°C 100% 5.1 mph N8.2 kmh N 9.0 mph14.5 kmh 30.13 in1020.3 mb 0.04 in1.0 mm 0.00 in0.0 mm 0.05 in1.3 mm
10:20 AM 34.4°F1.3°C 34.4°F1.3°C 100% 5.4 mph N8.7 kmh N 8.0 mph12.9 kmh 30.14 in1020.7 mb 0.04 in1.0 mm 0.00 in0.0 mm 0.06 in1.5 mm
10:30 AM 34.7°F1.5°C 34.7°F1.5°C 100% 5.0 mph N8.0 kmh N 8.0 mph12.9 kmh 30.13 in1020.3 mb 0.03 in0.8 mm 0.00 in0.0 mm 0.06 in1.5 mm
10:40 AM 35.2°F1.8°C 35.2°F1.8°C 100% 5.0 mph N8.0 kmh N 8.0 mph12.9 kmh 30.14 in1020.7 mb 0.03 in0.8 mm 0.00 in0.0 mm 0.06 in1.5 mm
10:50 AM 35.5°F1.9°C 35.5°F1.9°C 100% 4.9 mph N7.9 kmh N 8.0 mph12.9 kmh 30.14 in1020.7 mb 0.02 in0.5 mm 0.00 in0.0 mm 0.06 in1.5 mm
11:00 AM 35.8°F2.1°C 35.5°F1.9°C 99% 5.3 mph N8.5 kmh N 9.0 mph14.5 kmh 30.14 in1020.7 mb 0.01 in0.3 mm 0.00 in0.0 mm 0.06 in1.5 mm
11:10 AM 35.9°F2.2°C 34.9°F1.6°C 96% 6.0 mph N9.7 kmh N 9.0 mph14.5 kmh 30.14 in1020.7 mb 0.01 in0.3 mm 0.00 in0.0 mm 0.06 in1.5 mm
11:20 AM 36.6°F2.6°C 35.8°F2.1°C 97% 6.9 mph N11.1 kmh N 9.0 mph14.5 kmh 30.14 in1020.7 mb 0.00 in0.0 mm 0.00 in0.0 mm 0.06 in1.5 mm
11:30 AM 37.3°F2.9°C 36.0°F2.2°C 95% 6.7 mph N10.8 kmh N 10.0 mph16.1 kmh 30.14 in1020.7 mb 0.00 in0.0 mm 0.00 in0.0 mm 0.06 in1.5 mm
11:40 AM 38.3°F3.5°C 37.3°F2.9°C 96% 6.0 mph N9.7 kmh N 10.0 mph16.1 kmh 30.14 in1020.7 mb 0.00 in0.0 mm 0.00 in0.0 mm 0.06 in1.5 mm
11:50 AM 38.9°F3.8°C 36.5°F2.5°C 91% 5.9 mph N9.5 kmh N 9.0 mph14.5 kmh 30.14 in1020.7 mb 0.00 in0.0 mm 0.00 in0.0 mm 0.06 in1.5 mm
12:00 PM 39.6°F4.2°C 37.5°F3.1°C 92% 5.6 mph N9.0 kmh N 10.0 mph16.1 kmh 30.14 in1020.7 mb 0.00 in0.0 mm 0.00 in0.0 mm 0.06 in1.5 mm
12:10 PM 40.1°F4.5°C 37.4°F3.0°C 90% 5.2 mph N8.4 kmh N 9.0 mph14.5 kmh 30.13 in1020.3 mb 0.00 in0.0 mm 0.00 in0.0 mm 0.06 in1.5 mm
12:20 PM 40.5°F4.7°C 37.5°F3.1°C 89% 6.1 mph N9.8 kmh N 10.0 mph16.1 kmh 30.14 in1020.7 mb 0.00 in0.0 mm 0.00 in0.0 mm 0.06 in1.5 mm
12:30 PM 41.1°F5.1°C 38.7°F3.7°C 91% 6.8 mph N10.9 kmh N 10.0 mph16.1 kmh 30.13 in1020.3 mb 0.00 in0.0 mm 0.00 in0.0 mm 0.06 in1.5 mm
12:40 PM 41.6°F5.3°C 37.1°F2.8°C 84% 5.9 mph N9.5 kmh N 11.0 mph17.7 kmh 30.14 in1020.7 mb 0.00 in0.0 mm 0.00 in0.0 mm 0.06 in1.5 mm
12:50 PM 42.6°F5.9°C 38.7°F3.7°C 86% 6.3 mph N10.1 kmh N 11.0 mph17.7 kmh 30.14 in1020.7 mb 0.00 in0.0 mm 0.00 in0.0 mm 0.06 in1.5 mm
01:00 PM 42.8°F6.0°C 39.2°F4.0°C 87% 6.3 mph N10.1 kmh N 11.0 mph17.7 kmh 30.14 in1020.7 mb 0.00 in0.0 mm 0.00 in0.0 mm 0.06 in1.5 mm
01:10 PM 43.1°F6.2°C 38.6°F3.7°C 84% 7.2 mph N11.6 kmh N 12.0 mph19.3 kmh 30.14 in1020.7 mb 0.00 in0.0 mm 0.00 in0.0 mm 0.06 in1.5 mm
01:20 PM 43.6°F6.4°C 40.0°F4.4°C 87% 6.5 mph N10.5 kmh N 12.0 mph19.3 kmh 30.14 in1020.7 mb 0.00 in0.0 mm 0.00 in0.0 mm 0.06 in1.5 mm
01:30 PM 43.8°F6.6°C 38.3°F3.5°C 81% 7.1 mph N11.4 kmh N 13.0 mph20.9 kmh 30.14 in1020.7 mb 0.00 in0.0 mm 0.00 in0.0 mm 0.06 in1.5 mm
01:40 PM 43.2°F6.2°C 37.1°F2.8°C 79% 8.2 mph N13.2 kmh N 13.0 mph20.9 kmh 30.13 in1020.3 mb 0.00 in0.0 mm 0.00 in0.0 mm 0.06 in1.5 mm
01:50 PM 42.8°F6.0°C 36.7°F2.6°C 79% 7.8 mph N12.6 kmh N 12.0 mph19.3 kmh 30.13 in1020.3 mb 0.00 in0.0 mm 0.00 in0.0 mm 0.06 in1.5 mm
02:00 PM 42.6°F5.9°C 36.5°F2.5°C 79% 6.5 mph N10.5 kmh N 11.0 mph17.7 kmh 30.13 in1020.3 mb 0.00 in0.0 mm 0.00 in0.0 mm 0.06 in1.5 mm
02:10 PM 42.5°F5.8°C 36.4°F2.4°C 79% 7.1 mph N11.4 kmh N 13.0 mph20.9 kmh 30.14 in1020.7 mb 0.00 in0.0 mm 0.00 in0.0 mm 0.06 in1.5 mm
02:20 PM 42.4°F5.8°C 35.7°F2.1°C 77% 8.2 mph N13.2 kmh N 16.0 mph25.7 kmh 30.14 in1020.7 mb 0.00 in0.0 mm 0.00 in0.0 mm 0.06 in1.5 mm
02:30 PM 42.6°F5.9°C 36.9°F2.7°C 80% 8.4 mph N13.5 kmh N 12.0 mph19.3 kmh 30.14 in1020.7 mb 0.00 in0.0 mm 0.00 in0.0 mm 0.06 in1.5 mm
02:40 PM 42.1°F5.6°C 37.0°F2.8°C 82% 6.5 mph NNW10.5 kmh NNW 11.0 mph17.7 kmh 30.14 in1020.7 mb 0.00 in0.0 mm 0.00 in0.0 mm 0.06 in1.5 mm
02:50 PM 42.1°F5.6°C 37.6°F3.1°C 84% 7.0 mph NW11.3 kmh NW 12.0 mph19.3 kmh 30.14 in1020.7 mb 0.00 in0.0 mm 0.00 in0.0 mm 0.06 in1.5 mm
03:00 PM 41.8°F5.4°C 35.8°F2.1°C 79% 6.8 mph NNW10.9 kmh NNW 11.0 mph17.7 kmh 30.14 in1020.7 mb 0.00 in0.0 mm 0.00 in0.0 mm 0.06 in1.5 mm
03:10 PM 41.4°F5.2°C 35.7°F2.1°C 80% 7.6 mph N12.2 kmh N 12.0 mph19.3 kmh 30.14 in1020.7 mb 0.00 in0.0 mm 0.00 in0.0 mm 0.06 in1.5 mm
03:20 PM 41.6°F5.3°C 35.9°F2.2°C 80% 7.1 mph NNW11.4 kmh NNW 15.0 mph24.1 kmh 30.14 in1020.7 mb 0.00 in0.0 mm 0.00 in0.0 mm 0.06 in1.5 mm
03:30 PM 41.5°F5.3°C 35.8°F2.1°C 80% 7.4 mph N11.9 kmh N 13.0 mph20.9 kmh 30.14 in1020.7 mb 0.00 in0.0 mm 0.00 in0.0 mm 0.06 in1.5 mm
03:40 PM 41.2°F5.1°C 36.1°F2.3°C 82% 8.0 mph NNW12.9 kmh NNW 11.0 mph17.7 kmh 30.14 in1020.7 mb 0.00 in0.0 mm 0.00 in0.0 mm 0.06 in1.5 mm
03:50 PM 42.4°F5.8°C 37.6°F3.1°C 83% 6.4 mph NW10.3 kmh NW 16.0 mph25.7 kmh 30.14 in1020.7 mb 0.00 in0.0 mm 0.00 in0.0 mm 0.06 in1.5 mm
04:00 PM 41.5°F5.3°C 37.0°F2.8°C 84% 7.4 mph NW11.9 kmh NW 13.0 mph20.9 kmh 30.15 in1021.0 mb 0.00 in0.0 mm 0.00 in0.0 mm 0.06 in1.5 mm
04:10 PM 40.4°F4.7°C 36.8°F2.7°C 87% 7.9 mph NW12.7 kmh NW 14.0 mph22.5 kmh 30.15 in1021.0 mb 0.00 in0.0 mm 0.00 in0.0 mm 0.06 in1.5 mm
04:20 PM 39.9°F4.4°C 36.9°F2.7°C 89% 7.2 mph NW11.6 kmh NW 10.0 mph16.1 kmh 30.16 in1021.3 mb 0.00 in0.0 mm 0.00 in0.0 mm 0.06 in1.5 mm
04:30 PM 39.4°F4.1°C 36.4°F2.4°C 89% 7.2 mph N11.6 kmh N 14.0 mph22.5 kmh 30.16 in1021.3 mb 0.00 in0.0 mm 0.00 in0.0 mm 0.06 in1.5 mm
04:40 PM 39.1°F3.9°C 36.1°F2.3°C 89% 7.1 mph N11.4 kmh N 11.0 mph17.7 kmh 30.15 in1021.0 mb 0.00 in0.0 mm 0.00 in0.0 mm 0.06 in1.5 mm
04:50 PM 38.8°F3.8°C 36.4°F2.4°C 91% 8.3 mph N13.4 kmh N 13.0 mph20.9 kmh 30.16 in1021.3 mb 0.00 in0.0 mm 0.00 in0.0 mm 0.06 in1.5 mm
05:00 PM 38.6°F3.7°C 36.5°F2.5°C 92% 6.8 mph NNW10.9 kmh NNW 12.0 mph19.3 kmh 30.16 in1021.3 mb 0.00 in0.0 mm 0.00 in0.0 mm 0.06 in1.5 mm
05:10 PM 38.5°F3.6°C 36.7°F2.6°C 93% 5.6 mph NNW9.0 kmh NNW 9.0 mph14.5 kmh 30.16 in1021.3 mb 0.00 in0.0 mm 0.00 in0.0 mm 0.06 in1.5 mm
05:20 PM 38.3°F3.5°C 36.7°F2.6°C 94% 6.3 mph NNW10.1 kmh NNW 9.0 mph14.5 kmh 30.16 in1021.3 mb 0.00 in0.0 mm 0.00 in0.0 mm 0.06 in1.5 mm
05:30 PM 38.2°F3.4°C 36.9°F2.7°C 95% 5.4 mph NNW8.7 kmh NNW 9.0 mph14.5 kmh 30.16 in1021.3 mb 0.00 in0.0 mm 0.00 in0.0 mm 0.06 in1.5 mm
05:40 PM 37.9°F3.3°C 37.1°F2.8°C 97% 4.8 mph NNW7.7 kmh NNW 11.0 mph17.7 kmh 30.16 in1021.3 mb 0.00 in0.0 mm 0.00 in0.0 mm 0.06 in1.5 mm
05:50 PM 37.8°F3.2°C 37.3°F2.9°C 98% 5.1 mph NNW8.2 kmh NNW 11.0 mph17.7 kmh 30.17 in1021.7 mb 0.00 in0.0 mm 0.00 in0.0 mm 0.06 in1.5 mm
06:00 PM 37.8°F3.2°C 37.3°F2.9°C 98% 5.9 mph NW9.5 kmh NW 10.0 mph16.1 kmh 30.17 in1021.7 mb 0.00 in0.0 mm 0.00 in0.0 mm 0.06 in1.5 mm
06:10 PM 37.6°F3.1°C 37.3°F2.9°C 99% 6.0 mph NW9.7 kmh NW 10.0 mph16.1 kmh 30.17 in1021.7 mb 0.00 in0.0 mm 0.00 in0.0 mm 0.06 in1.5 mm
06:20 PM 37.6°F3.1°C 37.3°F2.9°C 99% 5.2 mph NW8.4 kmh NW 8.0 mph12.9 kmh 30.17 in1021.7 mb 0.00 in0.0 mm 0.00 in0.0 mm 0.06 in1.5 mm
06:30 PM 37.6°F3.1°C 37.3°F2.9°C 99% 4.7 mph NW7.6 kmh NW 9.0 mph14.5 kmh 30.17 in1021.7 mb 0.00 in0.0 mm 0.00 in0.0 mm 0.06 in1.5 mm
06:40 PM 37.5°F3.1°C 37.0°F2.8°C 98% 5.0 mph NW8.0 kmh NW 10.0 mph16.1 kmh 30.18 in1022.0 mb 0.00 in0.0 mm 0.00 in0.0 mm 0.06 in1.5 mm
06:50 PM 37.5°F3.1°C 37.2°F2.9°C 99% 5.0 mph NW8.0 kmh NW 10.0 mph16.1 kmh 30.18 in1022.0 mb 0.00 in0.0 mm 0.00 in0.0 mm 0.06 in1.5 mm
07:00 PM 37.1°F2.8°C 36.8°F2.7°C 99% 5.8 mph NW9.3 kmh NW 14.0 mph22.5 kmh 30.18 in1022.0 mb 0.00 in0.0 mm 0.00 in0.0 mm 0.06 in1.5 mm
07:10 PM 36.9°F2.7°C 36.9°F2.7°C 100% 6.3 mph NW10.1 kmh NW 12.0 mph19.3 kmh 30.18 in1022.0 mb 0.00 in0.0 mm 0.00 in0.0 mm 0.06 in1.5 mm
07:20 PM 36.8°F2.7°C 36.8°F2.7°C 100% 5.8 mph NW9.3 kmh NW 8.0 mph12.9 kmh 30.19 in1022.4 mb 0.00 in0.0 mm 0.00 in0.0 mm 0.06 in1.5 mm
07:30 PM 36.8°F2.7°C 36.8°F2.7°C 100% 5.0 mph NNW8.0 kmh NNW 8.0 mph12.9 kmh 30.19 in1022.4 mb 0.00 in0.0 mm 0.00 in0.0 mm 0.06 in1.5 mm
07:40 PM 36.6°F2.6°C 36.6°F2.6°C 100% 4.8 mph NNW7.7 kmh NNW 8.0 mph12.9 kmh 30.20 in1022.7 mb 0.00 in0.0 mm 0.00 in0.0 mm 0.06 in1.5 mm
07:50 PM 36.6°F2.6°C 36.6°F2.6°C 100% 4.6 mph NNW7.4 kmh NNW 8.0 mph12.9 kmh 30.20 in1022.7 mb 0.00 in0.0 mm 0.00 in0.0 mm 0.06 in1.5 mm
08:00 PM 36.6°F2.6°C 36.6°F2.6°C 100% 4.2 mph NNW6.8 kmh NNW 6.0 mph9.7 kmh 30.20 in1022.7 mb 0.00 in0.0 mm 0.00 in0.0 mm 0.06 in1.5 mm
08:10 PM 36.5°F2.5°C 36.2°F2.3°C 99% 3.6 mph NW5.8 kmh NW 6.0 mph9.7 kmh 30.20 in1022.7 mb 0.00 in0.0 mm 0.00 in0.0 mm 0.06 in1.5 mm
08:20 PM 36.3°F2.4°C 36.3°F2.4°C 100% 3.0 mph NW4.8 kmh NW 6.0 mph9.7 kmh 30.20 in1022.7 mb 0.00 in0.0 mm 0.00 in0.0 mm 0.06 in1.5 mm
08:30 PM 36.3°F2.4°C 36.3°F2.4°C 100% 3.0 mph NW4.8 kmh NW 6.0 mph9.7 kmh 30.20 in1022.7 mb 0.00 in0.0 mm 0.00 in0.0 mm 0.06 in1.5 mm
08:40 PM 36.2°F2.3°C 36.2°F2.3°C 100% 3.3 mph NNW5.3 kmh NNW 7.0 mph11.3 kmh 30.20 in1022.7 mb 0.00 in0.0 mm 0.00 in0.0 mm 0.06 in1.5 mm
08:50 PM 36.2°F2.3°C 36.2°F2.3°C 100% 3.3 mph NNW5.3 kmh NNW 5.0 mph8.0 kmh 30.20 in1022.7 mb 0.00 in0.0 mm 0.00 in0.0 mm 0.06 in1.5 mm
09:00 PM 36.1°F2.3°C 36.1°F2.3°C 100% 1.9 mph NW3.1 kmh NW 6.0 mph9.7 kmh 30.20 in1022.7 mb 0.00 in0.0 mm 0.00 in0.0 mm 0.06 in1.5 mm
09:10 PM 35.9°F2.2°C 35.9°F2.2°C 100% 3.7 mph NW6.0 kmh NW 5.0 mph8.0 kmh 30.20 in1022.7 mb 0.00 in0.0 mm 0.00 in0.0 mm 0.06 in1.5 mm
09:20 PM 35.6°F2.0°C 35.6°F2.0°C 100% 3.0 mph NW4.8 kmh NW 5.0 mph8.0 kmh 30.21 in1023.0 mb 0.00 in0.0 mm 0.00 in0.0 mm 0.06 in1.5 mm
09:30 PM 35.5°F1.9°C 35.5°F1.9°C 100% 3.0 mph NW4.8 kmh NW 5.0 mph8.0 kmh 30.21 in1023.0 mb 0.00 in0.0 mm 0.00 in0.0 mm 0.06 in1.5 mm
09:40 PM 35.3°F1.8°C 35.3°F1.8°C 100% 1.3 mph NW2.1 kmh NW 4.0 mph6.4 kmh 30.21 in1023.0 mb 0.00 in0.0 mm 0.00 in0.0 mm 0.06 in1.5 mm
09:50 PM 34.9°F1.6°C 34.9°F1.6°C 100% 1.0 mph NW1.6 kmh NW 5.0 mph8.0 kmh 30.21 in1023.0 mb 0.00 in0.0 mm 0.00 in0.0 mm 0.06 in1.5 mm
10:00 PM 34.3°F1.3°C 34.3°F1.3°C 100% 1.9 mph NW3.1 kmh NW 4.0 mph6.4 kmh 30.21 in1023.0 mb 0.00 in0.0 mm 0.00 in0.0 mm 0.06 in1.5 mm
10:10 PM 34.0°F1.1°C 34.0°F1.1°C 100% 0.9 mph NW1.4 kmh NW 3.0 mph4.8 kmh 30.21 in1023.0 mb 0.00 in0.0 mm 0.00 in0.0 mm 0.06 in1.5 mm
10:20 PM 33.8°F1.0°C 33.8°F1.0°C 100% Calm Calm 1.0 mph1.6 kmh 30.21 in1023.0 mb 0.00 in0.0 mm 0.00 in0.0 mm 0.06 in1.5 mm
10:30 PM 33.7°F0.9°C 33.7°F0.9°C 100% Calm Calm 2.0 mph3.2 kmh 30.21 in1023.0 mb 0.00 in0.0 mm 0.00 in0.0 mm 0.06 in1.5 mm
10:40 PM 33.7°F0.9°C 33.7°F0.9°C 100% Calm Calm -- 30.21 in1023.0 mb 0.00 in0.0 mm 0.00 in0.0 mm 0.06 in1.5 mm
10:50 PM 33.4°F0.8°C 33.4°F0.8°C 100% 0.3 mph NW0.5 kmh NW 3.0 mph4.8 kmh 30.21 in1023.0 mb 0.00 in0.0 mm 0.00 in0.0 mm 0.06 in1.5 mm
11:00 PM 33.1°F0.6°C 33.1°F0.6°C 100% 1.0 mph NW1.6 kmh NW 4.0 mph6.4 kmh 30.21 in1023.0 mb 0.00 in0.0 mm 0.00 in0.0 mm 0.06 in1.5 mm
11:10 PM 33.0°F0.6°C 33.0°F0.6°C 100% 1.0 mph NW1.6 kmh NW 3.0 mph4.8 kmh 30.20 in1022.7 mb 0.00 in0.0 mm 0.00 in0.0 mm 0.06 in1.5 mm
11:20 PM 32.7°F0.4°C 32.7°F0.4°C 100% Calm Calm -- 30.20 in1022.7 mb 0.00 in0.0 mm 0.00 in0.0 mm 0.06 in1.5 mm
11:30 PM 32.7°F0.4°C 32.7°F0.4°C 100% Calm Calm -- 30.20 in1022.7 mb 0.00 in0.0 mm 0.00 in0.0 mm 0.06 in1.5 mm
11:40 PM 32.5°F0.3°C 32.5°F0.3°C 100% Calm Calm -- 30.20 in1022.7 mb 0.00 in0.0 mm 0.00 in0.0 mm 0.06 in1.5 mm
11:50 PM 32.5°F0.3°C 32.5°F0.3°C 100% Calm Calm 1.0 mph1.6 kmh 30.20 in1022.7 mb 0.00 in0.0 mm 0.00 in0.0 mm 0.06 in1.5 mm